Airport details for: LGKP (Greece)

Metar

LGKP 250850Z 30022KT CAVOK 18/12 Q1019

General details

ICAO: LGKP
IATA: AOK
Name (city): Karpathos
Major:
Country: Greece
vACC: Hellenic vACC
Description:

Karpathos Island National Airport (IATA: AOK, ICAO: LGKP) is an airport in Karpathos, Greece. The airport first operated in 1970 and its buildings cover an area of 700 square meters. The terminal of the airport has two bars and one duty-free shop.

Scenery links:
FS9 scenery:
FSX/P3D scenery:
XP scenery:
Elevation: 66 ft.
Transition altitude: 6000 ft.
MSA: 7800 ft.
Latitude: 35.421111
Longitude: 27.145833
LGKP Charts
LGKP Notams
LGKP Online stations

Runways

Number Course Length Elevation Lat Lon ILS ILS freq ILS FAC GP
12 121° 7870ft / 2399 m 37ft 35.426508 27.136211 - - 3.0°
30 301° 7870ft / 2399 m 62ft 35.41577 27.155239 - - 3.0°